Time;durP1;ratioP1;P1;durP2;ratioP2;P2;SDS_P1;SDS_P2;PMS_P1;PMS_P2;Temp;Humidity;BMP_temperature;BMP_pressure;BME280_temperature;BME280_humidity;BME280_pressure;Samples;Min_cycle;Max_cycle;Signal;HPM_P1;HPM_P2
2023/10/15 00:00:19;;;;;;;7.40;2.20;;;;;;;;;;5013162;28;20267;-43
2023/10/15 00:03:07;;;;;;;4.78;1.85;;;;;;;;;;5013125;28;20264;-44
2023/10/15 00:05:35;;;;;;;4.85;2.08;;;;;;;;;;5012677;28;20237;-43
2023/10/15 00:08:03;;;;;;;6.05;2.38;;;;;;;;;;5028711;28;20207;-44
2023/10/15 00:10:34;;;;;;;4.57;2.50;;;;;;;;;;5032017;28;20258;-43
2023/10/15 00:13:04;;;;;;;5.88;2.30;;;;;;;;;;5031409;28;20688;-44
2023/10/15 00:15:31;;;;;;;4.00;2.58;;;;;;;;;;5030821;28;20200;-43
2023/10/15 00:18:00;;;;;;;5.55;2.35;;;;;;;;;;5030177;28;20654;-43
2023/10/15 00:20:34;;;;;;;4.85;2.55;;;;;;;;;;5030975;28;20205;-45
2023/10/15 00:23:06;;;;;;;8.38;2.88;;;;;;;;;;5030852;28;20200;-43
2023/10/15 00:25:36;;;;;;;6.07;3.13;;;;;;;;;;5030455;28;20217;-43
2023/10/15 00:28:06;;;;;;;6.10;2.92;;;;;;;;;;5031225;28;20211;-43
2023/10/15 00:30:34;;;;;;;7.93;2.75;;;;;;;;;;5030879;28;20204;-44
2023/10/15 00:33:09;;;;;;;5.53;2.55;;;;;;;;;;5031041;28;20205;-43
2023/10/15 00:35:44;;;;;;;7.80;2.63;;;;;;;;;;5030882;28;20657;-43
2023/10/15 00:38:16;;;;;;;6.97;2.47;;;;;;;;;;5030822;28;20204;-44
2023/10/15 00:41:22;;;;;;;7.10;2.60;;;;;;;;;;5030890;28;20197;-43
2023/10/15 00:43:52;;;;;;;6.82;2.47;;;;;;;;;;5031059;28;20621;-43
2023/10/15 00:46:19;;;;;;;7.28;2.63;;;;;;;;;;5031911;28;20220;-43
2023/10/15 00:48:47;;;;;;;5.28;2.50;;;;;;;;;;5030751;28;20205;-42
2023/10/15 00:51:14;;;;;;;6.20;2.85;;;;;;;;;;5030922;28;20200;-42
2023/10/15 00:54:17;;;;;;;4.32;2.30;;;;;;;;;;5031795;28;20201;-43
2023/10/15 00:56:38;;;;;;;5.53;2.20;;;;;;;;;;5030624;28;20208;-43
2023/10/15 01:01:34;;;;;;;11.10;2.42;;;;;;;;;;5031886;28;20204;-43
2023/10/15 01:04:10;;;;;;;6.57;2.85;;;;;;;;;;5031608;28;20205;-42
2023/10/15 01:06:39;;;;;;;5.82;2.30;;;;;;;;;;5031862;28;20232;-43
2023/10/15 01:09:27;;;;;;;5.70;2.50;;;;;;;;;;5047165;28;20211;-43
2023/10/15 01:11:58;;;;;;;5.10;2.30;;;;;;;;;;5031456;28;20197;-44
2023/10/15 01:14:38;;;;;;;3.47;2.15;;;;;;;;;;5031659;28;20231;-43
2023/10/15 01:17:05;;;;;;;2.58;1.75;;;;;;;;;;5031750;28;20211;-43
2023/10/15 01:19:34;;;;;;;3.08;2.13;;;;;;;;;;5030485;28;20209;-44
2023/10/15 01:22:16;;;;;;;8.63;2.10;;;;;;;;;;5031738;28;20251;-43
2023/10/15 01:24:53;;;;;;;3.88;2.22;;;;;;;;;;5030331;28;20239;-44
2023/10/15 01:27:30;;;;;;;7.47;2.03;;;;;;;;;;5031668;28;20658;-43
2023/10/15 01:30:00;;;;;;;3.00;1.92;;;;;;;;;;5035324;28;20200;-42
2023/10/15 01:32:30;;;;;;;4.57;2.05;;;;;;;;;;5035523;28;20204;-43
2023/10/15 01:35:00;;;;;;;3.85;2.40;;;;;;;;;;5035556;28;20227;-43
2023/10/15 01:37:28;;;;;;;5.93;2.40;;;;;;;;;;5035240;28;20201;-43
2023/10/15 01:40:01;;;;;;;6.28;2.45;;;;;;;;;;5035233;28;20212;-43
2023/10/15 01:45:13;;;;;;;8.60;3.00;;;;;;;;;;5035596;28;20220;-43
2023/10/15 01:50:23;;;;;;;4.68;2.55;;;;;;;;;;5035310;28;20212;-43
2023/10/15 01:53:01;;;;;;;4.50;2.28;;;;;;;;;;5018815;28;20291;-43
2023/10/15 01:55:35;;;;;;;4.18;2.40;;;;;;;;;;5033941;28;20205;-43
2023/10/15 01:58:05;;;;;;;5.03;2.30;;;;;;;;;;5033700;28;20258;-43
2023/10/15 02:00:34;;;;;;;3.50;2.25;;;;;;;;;;5033653;28;20207;-44
2023/10/15 02:03:01;;;;;;;4.85;2.50;;;;;;;;;;5033884;28;20208;-43
2023/10/15 02:05:41;;;;;;;6.95;2.80;;;;;;;;;;5034529;28;20335;-43
2023/10/15 02:08:12;;;;;;;6.70;2.33;;;;;;;;;;5063552;28;20224;-43
2023/10/15 02:10:40;;;;;;;5.75;2.33;;;;;;;;;;5031997;28;20254;-43
2023/10/15 02:13:08;;;;;;;6.18;2.38;;;;;;;;;;5031770;28;20204;-44
2023/10/15 02:15:39;;;;;;;7.93;2.63;;;;;;;;;;5032028;28;20215;-43
2023/10/15 02:18:31;;;;;;;8.15;2.25;;;;;;;;;;5031936;28;20205;-43
2023/10/15 02:23:22;;;;;;;5.35;2.58;;;;;;;;;;5032989;28;20292;-43
2023/10/15 02:25:58;;;;;;;6.10;2.38;;;;;;;;;;5033293;28;20224;-45
2023/10/15 02:28:35;;;;;;;7.10;2.72;;;;;;;;;;5033030;28;20205;-44
2023/10/15 02:33:36;;;;;;;6.50;2.78;;;;;;;;;;5034319;28;20212;-42
2023/10/15 02:36:09;;;;;;;8.30;2.85;;;;;;;;;;5033325;28;20616;-43
2023/10/15 02:38:36;;;;;;;8.07;2.65;;;;;;;;;;5034048;28;20200;-43
2023/10/15 02:41:05;;;;;;;8.55;2.40;;;;;;;;;;5033744;28;20217;-43
2023/10/15 02:43:36;;;;;;;6.75;2.13;;;;;;;;;;5033169;28;20211;-43
2023/10/15 02:46:36;;;;;;;7.03;2.22;;;;;;;;;;5033928;28;20228;-43
2023/10/15 02:49:07;;;;;;;6.50;2.35;;;;;;;;;;5032820;28;20679;-43
2023/10/15 02:51:35;;;;;;;4.90;2.20;;;;;;;;;;5034356;28;20300;-43
2023/10/15 02:54:18;;;;;;;7.13;2.00;;;;;;;;;;5034362;28;20204;-43
2023/10/15 02:56:45;;;;;;;6.05;2.05;;;;;;;;;;5033937;28;20189;-43
2023/10/15 02:59:16;;;;;;;3.20;1.63;;;;;;;;;;5032588;28;20266;-43
2023/10/15 03:01:46;;;;;;;4.03;1.95;;;;;;;;;;5032593;28;20211;-42
2023/10/15 03:04:32;;;;;;;5.63;1.83;;;;;;;;;;5032540;28;20201;-44
2023/10/15 03:07:29;;;;;;;4.88;1.40;;;;;;;;;;5032346;28;20232;-43
2023/10/15 03:09:56;;;;;;;5.50;1.70;;;;;;;;;;5032585;28;20208;-43
2023/10/15 03:12:25;;;;;;;4.47;1.50;;;;;;;;;;5033582;28;20223;-43
2023/10/15 03:14:52;;;;;;;6.13;1.50;;;;;;;;;;5033501;28;20273;-43
2023/10/15 03:17:26;;;;;;;5.68;1.70;;;;;;;;;;5033907;28;20208;-43
2023/10/15 03:19:54;;;;;;;7.35;2.08;;;;;;;;;;5032549;28;20216;-43
2023/10/15 03:22:30;;;;;;;4.18;1.92;;;;;;;;;;5033335;28;20212;-43
2023/10/15 03:24:59;;;;;;;3.13;1.88;;;;;;;;;;5033561;28;20231;-42
2023/10/15 03:27:27;;;;;;;5.28;2.08;;;;;;;;;;5033240;28;20216;-43
2023/10/15 03:29:57;;;;;;;3.58;1.67;;;;;;;;;;5032988;28;20645;-43
2023/10/15 03:32:31;;;;;;;6.40;1.58;;;;;;;;;;5033365;28;20259;-43
2023/10/15 03:35:06;;;;;;;5.60;1.55;;;;;;;;;;5033385;28;20207;-43
2023/10/15 03:37:45;;;;;;;4.55;1.30;;;;;;;;;;5033065;28;20552;-43
2023/10/15 03:40:29;;;;;;;6.88;1.65;;;;;;;;;;5033301;28;20208;-44
2023/10/15 03:43:06;;;;;;;5.13;1.52;;;;;;;;;;5033290;28;20189;-43
2023/10/15 03:45:40;;;;;;;4.78;1.10;;;;;;;;;;5032741;28;20250;-43
2023/10/15 03:48:14;;;;;;;4.40;1.48;;;;;;;;;;5033233;28;20188;-43
2023/10/15 03:50:53;;;;;;;2.53;1.30;;;;;;;;;;5033150;28;20189;-43
2023/10/15 03:53:28;;;;;;;5.68;1.50;;;;;;;;;;5032776;28;20219;-43
2023/10/15 03:55:56;;;;;;;8.82;1.23;;;;;;;;;;5026522;28;20203;-43
2023/10/15 03:58:28;;;;;;;4.88;1.50;;;;;;;;;;5015448;28;20205;-43
2023/10/15 04:01:11;;;;;;;3.47;1.40;;;;;;;;;;5029902;28;20231;-43
2023/10/15 04:03:42;;;;;;;3.75;1.48;;;;;;;;;;5036791;28;20192;-43
2023/10/15 04:06:13;;;;;;;3.90;1.35;;;;;;;;;;5043175;28;20248;-43
2023/10/15 04:11:30;;;;;;;1.30;0.93;;;;;;;;;;5043810;28;20196;-46
2023/10/15 04:14:04;;;;;;;2.78;1.30;;;;;;;;;;5044922;28;20196;-44
2023/10/15 04:16:31;;;;;;;4.75;1.50;;;;;;;;;;5038149;28;20189;-45
2023/10/15 04:19:00;;;;;;;5.47;1.85;;;;;;;;;;5041966;28;20201;-43
2023/10/15 04:21:27;;;;;;;4.20;1.73;;;;;;;;;;5039968;28;20212;-44
2023/10/15 04:23:56;;;;;;;5.05;1.35;;;;;;;;;;5038354;28;20505;-44
2023/10/15 04:26:28;;;;;;;5.75;1.50;;;;;;;;;;5043214;28;20278;-45
2023/10/15 04:28:56;;;;;;;5.32;1.52;;;;;;;;;;5039332;28;20189;-42
2023/10/15 04:31:29;;;;;;;4.65;1.42;;;;;;;;;;5040801;28;20196;-43
2023/10/15 04:33:57;;;;;;;6.72;1.52;;;;;;;;;;5050234;28;20197;-42
2023/10/15 04:36:24;;;;;;;4.82;1.65;;;;;;;;;;5043166;28;20358;-43
2023/10/15 04:39:08;;;;;;;5.00;1.17;;;;;;;;;;5038057;28;20205;-43
2023/10/15 04:41:35;;;;;;;3.47;1.35;;;;;;;;;;5042213;28;20205;-43
2023/10/15 04:44:04;;;;;;;2.00;1.10;;;;;;;;;;5041450;28;20652;-45
2023/10/15 04:46:40;;;;;;;4.07;1.88;;;;;;;;;;5041067;28;20269;-44
2023/10/15 04:49:09;;;;;;;5.30;1.27;;;;;;;;;;5042127;28;20200;-46
2023/10/15 04:51:42;;;;;;;3.40;1.55;;;;;;;;;;5040640;28;20196;-44
2023/10/15 04:54:12;;;;;;;4.75;1.50;;;;;;;;;;5038119;28;20707;-45
2023/10/15 04:56:39;;;;;;;4.55;1.92;;;;;;;;;;5038617;28;20204;-42
2023/10/15 04:59:06;;;;;;;5.90;1.75;;;;;;;;;;5041798;28;20585;-44
2023/10/15 05:01:33;;;;;;;5.68;1.38;;;;;;;;;;5035935;28;20279;-44
2023/10/15 05:04:04;;;;;;;7.70;2.00;;;;;;;;;;5039568;28;20666;-44
2023/10/15 05:06:31;;;;;;;9.45;1.95;;;;;;;;;;5036303;28;20684;-42
2023/10/15 05:08:59;;;;;;;5.28;2.00;;;;;;;;;;5044296;28;20208;-43
2023/10/15 05:11:28;;;;;;;4.95;1.63;;;;;;;;;;5041855;28;20208;-44
2023/10/15 05:13:55;;;;;;;5.45;1.63;;;;;;;;;;5039068;28;20215;-45
2023/10/15 05:16:22;;;;;;;7.18;1.83;;;;;;;;;;5041990;28;20215;-42
2023/10/15 05:18:50;;;;;;;4.28;1.15;;;;;;;;;;5041515;28;20196;-43
2023/10/15 05:21:17;;;;;;;6.60;1.85;;;;;;;;;;5036492;28;20193;-43
2023/10/15 05:23:45;;;;;;;4.80;1.70;;;;;;;;;;5030554;28;20201;-43
2023/10/15 05:26:13;;;;;;;6.10;1.80;;;;;;;;;;5018142;28;20480;-42
2023/10/15 05:28:40;;;;;;;5.47;1.73;;;;;;;;;;5030463;28;20220;-43
2023/10/15 05:31:07;;;;;;;6.35;1.60;;;;;;;;;;5030837;28;20442;-43
2023/10/15 05:33:34;;;;;;;2.25;1.20;;;;;;;;;;5030236;28;20220;-44
2023/10/15 05:36:01;;;;;;;3.83;1.20;;;;;;;;;;5030746;28;20216;-43
2023/10/15 05:38:29;;;;;;;4.90;1.50;;;;;;;;;;5030580;28;20715;-45
2023/10/15 05:41:00;;;;;;;2.70;1.13;;;;;;;;;;5029734;28;20251;-44
2023/10/15 05:43:27;;;;;;;4.05;1.33;;;;;;;;;;5010872;28;20237;-44
2023/10/15 05:45:54;;;;;;;3.72;1.20;;;;;;;;;;5021986;28;20232;-44
2023/10/15 05:48:21;;;;;;;2.28;1.00;;;;;;;;;;5030821;28;20257;-44
2023/10/15 05:50:49;;;;;;;2.67;1.02;;;;;;;;;;5030821;28;20278;-43
2023/10/15 05:53:17;;;;;;;3.63;1.17;;;;;;;;;;5030657;28;20740;-43
2023/10/15 05:55:44;;;;;;;3.80;0.90;;;;;;;;;;5030259;28;20596;-43
2023/10/15 05:58:12;;;;;;;5.63;1.52;;;;;;;;;;5030516;28;20225;-44
2023/10/15 06:00:39;;;;;;;4.07;1.23;;;;;;;;;;5030307;28;20252;-44
2023/10/15 06:03:08;;;;;;;3.38;1.40;;;;;;;;;;5030517;28;20778;-44
2023/10/15 06:05:36;;;;;;;2.90;1.10;;;;;;;;;;5029958;28;20236;-43
2023/10/15 06:08:05;;;;;;;2.30;1.20;;;;;;;;;;5029123;28;20217;-43
2023/10/15 06:10:32;;;;;;;6.25;1.60;;;;;;;;;;5029133;28;20221;-43
2023/10/15 06:13:01;;;;;;;3.63;1.20;;;;;;;;;;5029529;28;20221;-45
2023/10/15 06:15:29;;;;;;;2.55;1.02;;;;;;;;;;5031773;28;20225;-45
2023/10/15 06:17:57;;;;;;;6.57;1.83;;;;;;;;;;5031284;28;20228;-42
2023/10/15 06:20:25;;;;;;;2.67;1.27;;;;;;;;;;5033094;28;20236;-45
2023/10/15 06:22:55;;;;;;;7.68;1.42;;;;;;;;;;5033491;28;20217;-44
2023/10/15 06:25:24;;;;;;;5.45;0.93;;;;;;;;;;5032920;28;20221;-44
2023/10/15 06:27:52;;;;;;;3.45;1.10;;;;;;;;;;5033141;28;20231;-43
2023/10/15 06:30:19;;;;;;;3.55;1.17;;;;;;;;;;5033558;28;20217;-41
2023/10/15 06:32:52;;;;;;;5.10;1.83;;;;;;;;;;5033399;28;20213;-44
2023/10/15 06:35:22;;;;;;;6.28;1.30;;;;;;;;;;5031721;28;20231;-42
2023/10/15 06:37:55;;;;;;;4.32;1.60;;;;;;;;;;5032802;28;20227;-44
2023/10/15 06:40:24;;;;;;;4.70;2.20;;;;;;;;;;5033029;28;20228;-44
2023/10/15 06:42:52;;;;;;;8.25;3.30;;;;;;;;;;5033317;28;20216;-45
2023/10/15 06:45:20;;;;;;;7.45;2.35;;;;;;;;;;5033564;28;20209;-42
2023/10/15 06:47:51;;;;;;;9.65;2.60;;;;;;;;;;5032877;28;20236;-43
2023/10/15 06:50:24;;;;;;;5.63;2.15;;;;;;;;;;5033597;28;20224;-41
2023/10/15 06:52:54;;;;;;;4.38;1.70;;;;;;;;;;5033499;28;20212;-44
2023/10/15 06:55:22;;;;;;;5.75;1.77;;;;;;;;;;5032534;28;20224;-42
2023/10/15 06:57:50;;;;;;;3.53;1.50;;;;;;;;;;5030861;28;20229;-42
2023/10/15 07:00:21;;;;;;;5.10;1.85;;;;;;;;;;5034660;28;20650;-40
2023/10/15 07:02:50;;;;;;;4.10;1.38;;;;;;;;;;5032986;28;20240;-41
2023/10/15 07:05:20;;;;;;;3.63;1.40;;;;;;;;;;5032944;28;20228;-40
2023/10/15 07:07:47;;;;;;;4.13;1.50;;;;;;;;;;5032713;28;20241;-41
2023/10/15 07:10:16;;;;;;;8.68;1.67;;;;;;;;;;5032277;28;20699;-41
2023/10/15 07:12:47;;;;;;;4.50;1.25;;;;;;;;;;5032736;28;20224;-41
2023/10/15 07:15:16;;;;;;;3.35;1.30;;;;;;;;;;5032570;28;20296;-41
2023/10/15 07:17:44;;;;;;;4.00;1.33;;;;;;;;;;5032525;28;20778;-41
2023/10/15 07:20:18;;;;;;;9.05;1.02;;;;;;;;;;5032863;28;20307;-40
2023/10/15 07:22:48;;;;;;;1.83;0.95;;;;;;;;;;5029511;28;20724;-41
2023/10/15 07:25:17;;;;;;;7.82;1.20;;;;;;;;;;5017232;28;20289;-40
2023/10/15 07:27:48;;;;;;;3.75;1.55;;;;;;;;;;5032235;28;20243;-40
2023/10/15 07:30:19;;;;;;;2.30;1.15;;;;;;;;;;5033023;28;20224;-41
2023/10/15 07:32:50;;;;;;;1.95;1.10;;;;;;;;;;5032563;28;20224;-43
2023/10/15 07:35:17;;;;;;;2.78;1.33;;;;;;;;;;5032264;28;20255;-42
2023/10/15 07:37:48;;;;;;;7.53;2.25;;;;;;;;;;5033317;28;20209;-40
2023/10/15 07:40:16;;;;;;;2.72;1.33;;;;;;;;;;5033355;28;20189;-42
2023/10/15 07:42:52;;;;;;;5.00;1.38;;;;;;;;;;5033249;28;20208;-41
2023/10/15 07:45:20;;;;;;;9.13;1.60;;;;;;;;;;5032871;28;20679;-42
2023/10/15 07:47:48;;;;;;;3.33;1.10;;;;;;;;;;5032958;28;20224;-41
2023/10/15 07:50:17;;;;;;;2.65;1.42;;;;;;;;;;5032784;28;20200;-41
2023/10/15 07:52:46;;;;;;;6.80;1.83;;;;;;;;;;5032808;28;20209;-45
2023/10/15 07:55:13;;;;;;;2.88;1.23;;;;;;;;;;5032691;28;20563;-42
2023/10/15 07:57:41;;;;;;;6.20;1.08;;;;;;;;;;5032996;28;20216;-42
2023/10/15 08:00:15;;;;;;;3.60;1.40;;;;;;;;;;5032680;28;20215;-41
2023/10/15 08:02:45;;;;;;;5.13;1.40;;;;;;;;;;5033063;28;20196;-43
2023/10/15 08:05:13;;;;;;;2.10;1.20;;;;;;;;;;5031253;28;20201;-41
2023/10/15 08:07:41;;;;;;;4.90;1.23;;;;;;;;;;5032404;28;20229;-41
2023/10/15 08:10:14;;;;;;;3.10;1.02;;;;;;;;;;5032557;28;20201;-41
2023/10/15 08:12:44;;;;;;;9.23;1.50;;;;;;;;;;5032380;28;20660;-41
2023/10/15 08:15:12;;;;;;;6.70;2.05;;;;;;;;;;5032615;28;20220;-41
2023/10/15 08:17:39;;;;;;;9.63;1.75;;;;;;;;;;5032267;28;20209;-41
2023/10/15 08:20:09;;;;;;;5.38;1.05;;;;;;;;;;5032424;28;20291;-41
2023/10/15 08:22:40;;;;;;;8.35;2.53;;;;;;;;;;5032196;28;20212;-42
2023/10/15 08:25:14;;;;;;;6.00;2.47;;;;;;;;;;5032185;28;20212;-41
2023/10/15 08:27:45;;;;;;;4.57;1.63;;;;;;;;;;5032129;28;20228;-42
2023/10/15 08:30:13;;;;;;;4.78;1.10;;;;;;;;;;5031993;28;20211;-43
2023/10/15 08:32:45;;;;;;;5.43;1.30;;;;;;;;;;5032191;28;20204;-41
2023/10/15 08:35:15;;;;;;;3.70;1.55;;;;;;;;;;5031881;28;20235;-41
2023/10/15 08:37:43;;;;;;;4.38;1.20;;;;;;;;;;5031363;28;20205;-41
2023/10/15 08:40:15;;;;;;;4.82;1.92;;;;;;;;;;5032030;28;20615;-41
2023/10/15 08:43:07;;;;;;;4.75;1.48;;;;;;;;;;5031872;28;20231;-42
2023/10/15 08:45:35;;;;;;;7.07;1.13;;;;;;;;;;5032122;28;20216;-41
2023/10/15 08:48:05;;;;;;;2.50;1.10;;;;;;;;;;5030894;28;20224;-42
2023/10/15 08:50:36;;;;;;;6.05;1.75;;;;;;;;;;5031885;28;20565;-41
2023/10/15 08:53:04;;;;;;;5.78;1.30;;;;;;;;;;5031737;28;20209;-43
2023/10/15 08:55:33;;;;;;;5.43;1.00;;;;;;;;;;5031771;28;20201;-42
2023/10/15 08:58:00;;;;;;;2.80;1.17;;;;;;;;;;5029339;28;20658;-42
2023/10/15 09:00:28;;;;;;;3.25;1.33;;;;;;;;;;5029336;28;20208;-44
2023/10/15 09:03:00;;;;;;;5.63;1.17;;;;;;;;;;5025995;28;20579;-41
2023/10/15 09:05:37;;;;;;;2.60;1.15;;;;;;;;;;5026543;28;20327;-43
2023/10/15 09:08:07;;;;;;;6.03;1.50;;;;;;;;;;5020470;28;20245;-41
2023/10/15 09:10:36;;;;;;;4.80;1.10;;;;;;;;;;5027938;28;20231;-43
2023/10/15 09:13:05;;;;;;;4.90;1.23;;;;;;;;;;5026986;28;20228;-41
2023/10/15 09:15:32;;;;;;;2.22;0.95;;;;;;;;;;5013932;28;20624;-42
2023/10/15 09:17:59;;;;;;;5.38;1.45;;;;;;;;;;5029827;28;20589;-41
2023/10/15 09:20:27;;;;;;;4.28;0.90;;;;;;;;;;5030978;28;20303;-42
2023/10/15 09:22:57;;;;;;;5.70;1.05;;;;;;;;;;5031017;28;20224;-42
2023/10/15 09:25:29;;;;;;;4.53;1.23;;;;;;;;;;5030281;28;20232;-42
2023/10/15 09:27:58;;;;;;;2.53;1.35;;;;;;;;;;5030404;28;20251;-42
2023/10/15 09:30:27;;;;;;;3.90;1.48;;;;;;;;;;5030377;28;20231;-43
2023/10/15 09:32:54;;;;;;;3.08;1.13;;;;;;;;;;5030383;28;20720;-42
2023/10/15 09:35:22;;;;;;;5.95;1.40;;;;;;;;;;5030345;28;20221;-43
2023/10/15 09:37:49;;;;;;;3.05;0.80;;;;;;;;;;5030367;28;20256;-41
2023/10/15 09:40:32;;;;;;;1.70;1.00;;;;;;;;;;5030365;28;20776;-42
2023/10/15 09:42:59;;;;;;;6.10;1.35;;;;;;;;;;5030193;28;20223;-42
2023/10/15 09:45:30;;;;;;;5.25;0.93;;;;;;;;;;5030275;28;20257;-42
2023/10/15 09:47:57;;;;;;;4.20;1.10;;;;;;;;;;5029695;28;20221;-42
2023/10/15 09:50:27;;;;;;;6.38;1.25;;;;;;;;;;5033841;28;20228;-42
2023/10/15 09:52:56;;;;;;;4.07;1.23;;;;;;;;;;5034690;28;20278;-43
2023/10/15 09:55:26;;;;;;;7.47;1.27;;;;;;;;;;5035134;28;20246;-44
2023/10/15 09:57:56;;;;;;;2.17;0.93;;;;;;;;;;5014985;28;20563;-41
2023/10/15 10:03:57;;;;;;;2.00;1.10;;;;;;;;;;5014072;28;20638;-41
2023/10/15 10:06:51;;;;;;;3.97;1.30;;;;;;;;;;5017211;28;20236;-41
2023/10/15 10:09:41;;;;;;;2.55;0.95;;;;;;;;;;5033490;28;20251;-42
2023/10/15 10:12:38;;;;;;;6.43;1.58;;;;;;;;;;5034821;28;20201;-43
2023/10/15 10:15:28;;;;;;;3.17;1.08;;;;;;;;;;5034353;28;20196;-41
2023/10/15 10:17:55;;;;;;;2.33;0.88;;;;;;;;;;5013085;28;20221;-44
2023/10/15 10:20:33;;;;;;;8.02;1.55;;;;;;;;;;5014797;28;20205;-42
2023/10/15 10:23:05;;;;;;;2.35;0.95;;;;;;;;;;5014665;28;20201;-41
2023/10/15 10:25:42;;;;;;;6.15;1.10;;;;;;;;;;5025822;28;20204;-43
2023/10/15 10:28:13;;;;;;;4.65;1.42;;;;;;;;;;5034458;28;20721;-42
2023/10/15 10:30:57;;;;;;;4.10;1.27;;;;;;;;;;5033937;28;20188;-41
2023/10/15 10:33:45;;;;;;;4.60;0.93;;;;;;;;;;5034184;28;20204;-42
2023/10/15 10:36:27;;;;;;;3.63;1.20;;;;;;;;;;5028921;28;20819;-39
2023/10/15 10:39:18;;;;;;;3.10;1.17;;;;;;;;;;5015743;28;20202;-39
2023/10/15 10:41:49;;;;;;;3.65;1.35;;;;;;;;;;5033906;28;20200;-40
2023/10/15 10:44:22;;;;;;;2.17;1.10;;;;;;;;;;5021481;28;20287;-41
2023/10/15 10:46:56;;;;;;;4.72;1.10;;;;;;;;;;5031298;28;20254;-41
2023/10/15 10:49:36;;;;;;;7.20;1.27;;;;;;;;;;5028924;28;20859;-40
2023/10/15 10:52:23;;;;;;;5.03;1.17;;;;;;;;;;5024106;28;20194;-39
2023/10/15 10:54:50;;;;;;;5.55;1.20;;;;;;;;;;5030770;28;20205;-52
2023/10/15 10:57:21;;;;;;;2.65;1.00;;;;;;;;;;5034093;28;20209;-46
2023/10/15 10:59:49;;;;;;;2.60;1.10;;;;;;;;;;5033681;28;20185;-46
2023/10/15 11:02:17;;;;;;;4.72;1.08;;;;;;;;;;5038878;28;20207;-57
2023/10/15 11:04:44;;;;;;;5.70;1.10;;;;;;;;;;5034162;28;20228;-50
2023/10/15 11:07:13;;;;;;;4.63;1.05;;;;;;;;;;5052451;28;20243;-44
2023/10/15 11:09:42;;;;;;;5.60;1.00;;;;;;;;;;5037908;28;20228;-44
2023/10/15 11:12:10;;;;;;;2.70;1.02;;;;;;;;;;5032934;28;20665;-44
2023/10/15 11:14:37;;;;;;;2.78;0.90;;;;;;;;;;5033271;28;20219;-45
2023/10/15 11:17:05;;;;;;;3.70;0.90;;;;;;;;;;5029372;28;20201;-51
2023/10/15 11:19:32;;;;;;;4.38;1.25;;;;;;;;;;5030850;28;20279;-45
2023/10/15 11:22:00;;;;;;;1.90;0.73;;;;;;;;;;5029901;28;20486;-45
2023/10/15 11:24:27;;;;;;;3.88;0.90;;;;;;;;;;5031725;28;20205;-45
2023/10/15 11:26:55;;;;;;;3.15;0.90;;;;;;;;;;5029874;28;20204;-46
2023/10/15 11:29:23;;;;;;;5.30;1.00;;;;;;;;;;5031371;28;20671;-47
2023/10/15 11:31:58;;;;;;;3.22;1.00;;;;;;;;;;5032134;28;20205;-48
2023/10/15 11:34:28;;;;;;;5.72;1.15;;;;;;;;;;5032295;28;20579;-45
2023/10/15 11:36:56;;;;;;;2.83;0.70;;;;;;;;;;5033491;28;20197;-49
2023/10/15 11:39:47;;;;;;;8.90;1.55;;;;;;;;;;5033021;28;20200;-45
2023/10/15 11:42:14;;;;;;;2.22;0.88;;;;;;;;;;5033543;28;20708;-46
2023/10/15 11:44:44;;;;;;;2.08;0.77;;;;;;;;;;5032936;28;20205;-46
2023/10/15 11:47:15;;;;;;;3.33;0.88;;;;;;;;;;5033095;28;20185;-46
2023/10/15 11:49:44;;;;;;;2.15;0.95;;;;;;;;;;5033142;28;20721;-47
2023/10/15 11:52:14;;;;;;;5.43;1.13;;;;;;;;;;5032816;28;20197;-48
2023/10/15 11:54:51;;;;;;;3.60;1.20;;;;;;;;;;5032701;28;20565;-47
2023/10/15 11:57:26;;;;;;;3.28;1.48;;;;;;;;;;5033026;28;20203;-47
2023/10/15 11:59:54;;;;;;;3.80;1.20;;;;;;;;;;5032993;28;20192;-47
2023/10/15 12:02:25;;;;;;;5.95;1.38;;;;;;;;;;5032741;28;20271;-48
2023/10/15 12:04:56;;;;;;;4.75;1.30;;;;;;;;;;5032612;28;20187;-45
2023/10/15 12:07:28;;;;;;;4.80;1.38;;;;;;;;;;5032514;28;20236;-46
2023/10/15 12:09:56;;;;;;;3.58;1.02;;;;;;;;;;5032722;28;20263;-46
2023/10/15 12:12:23;;;;;;;3.70;0.90;;;;;;;;;;5031611;28;20213;-45
2023/10/15 12:14:50;;;;;;;3.95;1.00;;;;;;;;;;5032823;28;20216;-45
2023/10/15 12:17:17;;;;;;;2.08;1.00;;;;;;;;;;5032339;28;20666;-46
2023/10/15 12:19:44;;;;;;;4.18;1.23;;;;;;;;;;5032329;28;20197;-46
2023/10/15 12:22:16;;;;;;;8.68;1.40;;;;;;;;;;5032538;28;20209;-47
2023/10/15 12:24:43;;;;;;;4.18;1.00;;;;;;;;;;5032495;28;20197;-45
2023/10/15 12:27:11;;;;;;;2.08;0.98;;;;;;;;;;5030947;28;20657;-46
2023/10/15 12:29:38;;;;;;;3.72;1.02;;;;;;;;;;5032095;28;20208;-46
2023/10/15 12:32:12;;;;;;;6.13;1.60;;;;;;;;;;5032530;28;20274;-49
2023/10/15 12:34:39;;;;;;;3.45;1.00;;;;;;;;;;5032067;28;20716;-48
2023/10/15 12:37:07;;;;;;;3.45;1.23;;;;;;;;;;5032127;28;20267;-48
2023/10/15 12:39:40;;;;;;;2.90;1.42;;;;;;;;;;5032623;28;20282;-48
2023/10/15 12:42:11;;;;;;;5.60;1.63;;;;;;;;;;5032044;28;20205;-50
2023/10/15 12:44:44;;;;;;;4.60;1.30;;;;;;;;;;5030871;28;20206;-49
2023/10/15 12:47:12;;;;;;;4.57;1.30;;;;;;;;;;5030761;28;20255;-49
2023/10/15 12:49:39;;;;;;;2.58;1.33;;;;;;;;;;5031611;28;20243;-46
2023/10/15 12:52:08;;;;;;;5.55;1.48;;;;;;;;;;5031935;28;20266;-47
2023/10/15 12:54:35;;;;;;;4.00;1.88;;;;;;;;;;5031708;28;20205;-48
2023/10/15 12:57:04;;;;;;;7.10;1.80;;;;;;;;;;5031901;28;20215;-46
2023/10/15 12:59:31;;;;;;;4.28;0.95;;;;;;;;;;5031687;28;20212;-46
2023/10/15 13:02:03;;;;;;;2.75;1.10;;;;;;;;;;5031992;28;20247;-45
2023/10/15 13:04:31;;;;;;;3.63;0.98;;;;;;;;;;5031917;28;20224;-45
2023/10/15 13:06:59;;;;;;;4.00;1.02;;;;;;;;;;5031449;28;20249;-47
2023/10/15 13:09:25;;;;;;;1.95;0.70;;;;;;;;;;5031413;28;20786;-46
2023/10/15 13:11:53;;;;;;;3.95;1.23;;;;;;;;;;5031869;28;20211;-45
2023/10/15 13:14:20;;;;;;;3.05;1.05;;;;;;;;;;5031867;28;20216;-46
2023/10/15 13:16:50;;;;;;;2.58;0.90;;;;;;;;;;5031536;28;20205;-46
2023/10/15 13:19:18;;;;;;;4.00;1.00;;;;;;;;;;5031446;28;20216;-45
2023/10/15 13:21:46;;;;;;;3.72;1.25;;;;;;;;;;5031411;28;20673;-45
2023/10/15 13:24:13;;;;;;;3.00;0.88;;;;;;;;;;5033747;28;20208;-47
2023/10/15 13:26:42;;;;;;;1.25;0.70;;;;;;;;;;5034675;28;20223;-46
2023/10/15 13:29:09;;;;;;;2.42;1.10;;;;;;;;;;5035658;28;20667;-47
2023/10/15 13:31:36;;;;;;;2.28;0.70;;;;;;;;;;5035777;28;20204;-47
2023/10/15 13:34:06;;;;;;;4.32;1.63;;;;;;;;;;5034428;28;20204;-49
2023/10/15 13:36:34;;;;;;;6.60;1.58;;;;;;;;;;5035332;28;20600;-45
2023/10/15 13:39:01;;;;;;;3.20;1.17;;;;;;;;;;5049556;28;20219;-48
2023/10/15 13:41:29;;;;;;;3.97;1.02;;;;;;;;;;5035851;28;20496;-47
2023/10/15 13:43:57;;;;;;;2.50;1.10;;;;;;;;;;5035321;28;20224;-45
2023/10/15 13:46:24;;;;;;;4.13;2.00;;;;;;;;;;5035757;28;20201;-45
2023/10/15 13:48:53;;;;;;;4.00;1.02;;;;;;;;;;5035100;28;20216;-46
2023/10/15 13:51:22;;;;;;;1.90;0.90;;;;;;;;;;5035160;28;20204;-48
2023/10/15 13:53:49;;;;;;;6.07;0.88;;;;;;;;;;5035211;28;20208;-46
2023/10/15 13:56:17;;;;;;;5.95;1.17;;;;;;;;;;5035235;28;20208;-46
2023/10/15 13:58:45;;;;;;;4.22;1.42;;;;;;;;;;5035171;28;20295;-46
2023/10/15 14:01:12;;;;;;;1.83;0.90;;;;;;;;;;5035195;28;20247;-45
2023/10/15 14:03:40;;;;;;;1.73;0.93;;;;;;;;;;5034765;28;20283;-46
2023/10/15 14:06:07;;;;;;;5.43;1.27;;;;;;;;;;5034684;28;20287;-47
2023/10/15 14:08:35;;;;;;;4.15;1.20;;;;;;;;;;5034915;28;20316;-47
2023/10/15 14:11:03;;;;;;;4.25;1.10;;;;;;;;;;5034903;28;20204;-46
2023/10/15 14:13:30;;;;;;;6.97;2.67;;;;;;;;;;5035027;28;20350;-46
2023/10/15 14:16:01;;;;;;;4.93;1.83;;;;;;;;;;5035138;28;20205;-45
2023/10/15 14:18:28;;;;;;;2.78;1.38;;;;;;;;;;5034884;28;20209;-46
2023/10/15 14:20:56;;;;;;;3.65;1.40;;;;;;;;;;5034541;28;20670;-45
2023/10/15 14:23:23;;;;;;;2.35;1.23;;;;;;;;;;5034794;28;20223;-48
2023/10/15 14:25:54;;;;;;;6.35;1.30;;;;;;;;;;5034545;28;20475;-46
2023/10/15 14:28:21;;;;;;;2.80;1.10;;;;;;;;;;5034535;28;20315;-46
2023/10/15 14:30:49;;;;;;;9.85;1.77;;;;;;;;;;5034378;28;20560;-45
2023/10/15 14:33:17;;;;;;;9.50;2.00;;;;;;;;;;5034552;28;20296;-46
2023/10/15 14:35:45;;;;;;;4.80;2.08;;;;;;;;;;5033747;28;20220;-46
2023/10/15 14:38:12;;;;;;;3.33;1.27;;;;;;;;;;5034132;28;20205;-45
2023/10/15 14:40:39;;;;;;;4.07;2.00;;;;;;;;;;5027454;28;20216;-45
2023/10/15 14:43:07;;;;;;;2.30;1.23;;;;;;;;;;5024128;28;20205;-45
2023/10/15 14:45:36;;;;;;;2.30;1.73;;;;;;;;;;5032103;28;20720;-44
2023/10/15 14:48:04;;;;;;;4.22;1.50;;;;;;;;;;5044819;28;20606;-45
2023/10/15 14:50:32;;;;;;;3.78;1.70;;;;;;;;;;5032766;28;20225;-48
2023/10/15 14:53:04;;;;;;;6.10;2.30;;;;;;;;;;5037835;28;20673;-46
2023/10/15 14:55:31;;;;;;;7.15;1.48;;;;;;;;;;5021227;28;20239;-48
2023/10/15 14:57:58;;;;;;;3.30;1.20;;;;;;;;;;5028185;28;20707;-46
2023/10/15 15:00:26;;;;;;;3.10;1.40;;;;;;;;;;5032155;28;20379;-46
2023/10/15 15:02:53;;;;;;;3.72;1.48;;;;;;;;;;5030475;28;20252;-47
2023/10/15 15:05:21;;;;;;;2.10;1.05;;;;;;;;;;5029909;28;20240;-50
2023/10/15 15:07:48;;;;;;;8.02;2.05;;;;;;;;;;5031311;28;20306;-46
2023/10/15 15:10:17;;;;;;;3.47;1.38;;;;;;;;;;5031484;28;20232;-48
2023/10/15 15:12:44;;;;;;;2.10;1.13;;;;;;;;;;5031632;28;20213;-46
2023/10/15 15:15:14;;;;;;;5.93;1.10;;;;;;;;;;5030744;28;20217;-46
2023/10/15 15:17:41;;;;;;;5.20;1.40;;;;;;;;;;5030398;28;20229;-45
2023/10/15 15:20:11;;;;;;;4.45;1.52;;;;;;;;;;5029834;28;20212;-45
2023/10/15 15:22:38;;;;;;;2.97;0.93;;;;;;;;;;5034345;28;20219;-50